sensor_id;sensor_type;location;lat;lon;timestamp;P1;durP1;ratioP1;P2;durP2;ratioP2
77788;SDS011;70537;44.384;0.512;2023-08-01T00:02:17;3.47;;;1.98;;
77788;SDS011;70537;44.384;0.512;2023-08-01T00:04:42;2.90;;;1.52;;
77788;SDS011;70537;44.384;0.512;2023-08-01T00:07:08;4.68;;;2.25;;
77788;SDS011;70537;44.384;0.512;2023-08-01T00:09:33;2.17;;;1.58;;
77788;SDS011;70537;44.384;0.512;2023-08-01T00:11:58;4.53;;;2.10;;
77788;SDS011;70537;44.384;0.512;2023-08-01T00:14:24;2.92;;;2.20;;
77788;SDS011;70537;44.384;0.512;2023-08-01T00:16:50;3.20;;;2.20;;
77788;SDS011;70537;44.384;0.512;2023-08-01T00:19:16;2.15;;;1.95;;
77788;SDS011;70537;44.384;0.512;2023-08-01T00:21:41;3.00;;;2.22;;
77788;SDS011;70537;44.384;0.512;2023-08-01T00:24:07;2.50;;;1.85;;
77788;SDS011;70537;44.384;0.512;2023-08-01T00:26:33;4.10;;;2.40;;
77788;SDS011;70537;44.384;0.512;2023-08-01T00:28:59;2.60;;;1.92;;
77788;SDS011;70537;44.384;0.512;2023-08-01T00:31:24;3.65;;;2.08;;
77788;SDS011;70537;44.384;0.512;2023-08-01T00:33:50;3.75;;;2.10;;
77788;SDS011;70537;44.384;0.512;2023-08-01T00:36:15;1.98;;;1.73;;
77788;SDS011;70537;44.384;0.512;2023-08-01T00:38:41;5.97;;;2.50;;
77788;SDS011;70537;44.384;0.512;2023-08-01T00:41:08;1.77;;;1.63;;
77788;SDS011;70537;44.384;0.512;2023-08-01T00:43:36;6.97;;;1.95;;
77788;SDS011;70537;44.384;0.512;2023-08-01T00:46:03;6.55;;;2.35;;
77788;SDS011;70537;44.384;0.512;2023-08-01T00:50:59;3.35;;;2.20;;
77788;SDS011;70537;44.384;0.512;2023-08-01T00:53:28;6.40;;;2.55;;
77788;SDS011;70537;44.384;0.512;2023-08-01T00:55:55;2.90;;;2.22;;
77788;SDS011;70537;44.384;0.512;2023-08-01T00:58:21;2.08;;;1.80;;
77788;SDS011;70537;44.384;0.512;2023-08-01T01:00:52;3.42;;;2.03;;
77788;SDS011;70537;44.384;0.512;2023-08-01T01:03:17;2.97;;;1.90;;
77788;SDS011;70537;44.384;0.512;2023-08-01T01:05:53;2.20;;;1.92;;
77788;SDS011;70537;44.384;0.512;2023-08-01T01:08:26;7.45;;;3.05;;
77788;SDS011;70537;44.384;0.512;2023-08-01T01:10:52;4.22;;;1.92;;
77788;SDS011;70537;44.384;0.512;2023-08-01T01:13:17;3.42;;;2.10;;
77788;SDS011;70537;44.384;0.512;2023-08-01T01:15:42;2.70;;;2.47;;
77788;SDS011;70537;44.384;0.512;2023-08-01T01:18:08;5.25;;;2.42;;
77788;SDS011;70537;44.384;0.512;2023-08-01T01:20:34;3.85;;;2.33;;
77788;SDS011;70537;44.384;0.512;2023-08-01T01:23:01;2.35;;;2.15;;
77788;SDS011;70537;44.384;0.512;2023-08-01T01:25:29;3.28;;;1.88;;
77788;SDS011;70537;44.384;0.512;2023-08-01T01:27:55;3.42;;;1.77;;
77788;SDS011;70537;44.384;0.512;2023-08-01T01:30:22;2.30;;;2.10;;
77788;SDS011;70537;44.384;0.512;2023-08-01T01:32:47;4.15;;;2.03;;
77788;SDS011;70537;44.384;0.512;2023-08-01T01:35:14;5.00;;;2.45;;
77788;SDS011;70537;44.384;0.512;2023-08-01T01:37:39;4.05;;;1.92;;
77788;SDS011;70537;44.384;0.512;2023-08-01T01:40:05;8.27;;;2.15;;
77788;SDS011;70537;44.384;0.512;2023-08-01T01:42:31;4.40;;;2.22;;
77788;SDS011;70537;44.384;0.512;2023-08-01T01:44:56;2.72;;;2.00;;
77788;SDS011;70537;44.384;0.512;2023-08-01T01:47:22;5.50;;;2.05;;
77788;SDS011;70537;44.384;0.512;2023-08-01T01:49:47;5.82;;;2.65;;
77788;SDS011;70537;44.384;0.512;2023-08-01T01:52:13;6.28;;;2.58;;
77788;SDS011;70537;44.384;0.512;2023-08-01T01:54:38;3.42;;;2.15;;
77788;SDS011;70537;44.384;0.512;2023-08-01T01:57:04;6.10;;;2.67;;
77788;SDS011;70537;44.384;0.512;2023-08-01T01:59:30;5.38;;;2.65;;
77788;SDS011;70537;44.384;0.512;2023-08-01T02:01:55;4.78;;;2.92;;
77788;SDS011;70537;44.384;0.512;2023-08-01T02:04:21;4.80;;;2.65;;
77788;SDS011;70537;44.384;0.512;2023-08-01T02:06:46;6.95;;;2.60;;
77788;SDS011;70537;44.384;0.512;2023-08-01T02:09:12;4.95;;;2.47;;
77788;SDS011;70537;44.384;0.512;2023-08-01T02:11:38;5.93;;;2.75;;
77788;SDS011;70537;44.384;0.512;2023-08-01T02:14:04;4.38;;;2.40;;
77788;SDS011;70537;44.384;0.512;2023-08-01T02:16:29;3.78;;;1.88;;
77788;SDS011;70537;44.384;0.512;2023-08-01T02:18:55;6.35;;;2.72;;
77788;SDS011;70537;44.384;0.512;2023-08-01T02:21:20;4.93;;;2.63;;
77788;SDS011;70537;44.384;0.512;2023-08-01T02:23:46;3.22;;;2.35;;
77788;SDS011;70537;44.384;0.512;2023-08-01T02:26:11;7.22;;;2.63;;
77788;SDS011;70537;44.384;0.512;2023-08-01T02:28:37;9.60;;;2.88;;
77788;SDS011;70537;44.384;0.512;2023-08-01T02:31:02;5.45;;;2.00;;
77788;SDS011;70537;44.384;0.512;2023-08-01T02:33:28;3.45;;;2.05;;
77788;SDS011;70537;44.384;0.512;2023-08-01T02:35:53;5.22;;;3.03;;
77788;SDS011;70537;44.384;0.512;2023-08-01T02:38:19;4.60;;;2.63;;
77788;SDS011;70537;44.384;0.512;2023-08-01T02:40:44;3.90;;;2.40;;
77788;SDS011;70537;44.384;0.512;2023-08-01T02:43:10;5.68;;;2.63;;
77788;SDS011;70537;44.384;0.512;2023-08-01T02:45:35;3.58;;;2.35;;
77788;SDS011;70537;44.384;0.512;2023-08-01T02:48:01;5.93;;;3.17;;
77788;SDS011;70537;44.384;0.512;2023-08-01T02:50:26;3.97;;;2.78;;
77788;SDS011;70537;44.384;0.512;2023-08-01T02:52:52;5.20;;;2.67;;
77788;SDS011;70537;44.384;0.512;2023-08-01T02:55:17;4.97;;;2.63;;
77788;SDS011;70537;44.384;0.512;2023-08-01T02:57:43;2.95;;;2.65;;
77788;SDS011;70537;44.384;0.512;2023-08-01T03:00:09;7.57;;;2.70;;
77788;SDS011;70537;44.384;0.512;2023-08-01T03:02:37;7.65;;;2.92;;
77788;SDS011;70537;44.384;0.512;2023-08-01T03:05:05;4.55;;;2.97;;
77788;SDS011;70537;44.384;0.512;2023-08-01T03:07:32;6.30;;;2.53;;
77788;SDS011;70537;44.384;0.512;2023-08-01T03:09:58;4.22;;;2.92;;
77788;SDS011;70537;44.384;0.512;2023-08-01T03:12:23;6.57;;;2.92;;
77788;SDS011;70537;44.384;0.512;2023-08-01T03:14:49;5.28;;;3.00;;
77788;SDS011;70537;44.384;0.512;2023-08-01T03:17:14;5.50;;;2.70;;
77788;SDS011;70537;44.384;0.512;2023-08-01T03:19:40;4.32;;;3.33;;
77788;SDS011;70537;44.384;0.512;2023-08-01T03:22:06;5.10;;;2.53;;
77788;SDS011;70537;44.384;0.512;2023-08-01T03:24:32;6.53;;;2.80;;
77788;SDS011;70537;44.384;0.512;2023-08-01T03:26:58;5.95;;;2.70;;
77788;SDS011;70537;44.384;0.512;2023-08-01T03:29:23;3.65;;;2.80;;
77788;SDS011;70537;44.384;0.512;2023-08-01T03:31:49;7.22;;;2.95;;
77788;SDS011;70537;44.384;0.512;2023-08-01T03:34:14;4.65;;;2.95;;
77788;SDS011;70537;44.384;0.512;2023-08-01T03:36:40;3.80;;;2.97;;
77788;SDS011;70537;44.384;0.512;2023-08-01T03:39:05;5.85;;;3.40;;
77788;SDS011;70537;44.384;0.512;2023-08-01T03:41:31;4.55;;;3.08;;
77788;SDS011;70537;44.384;0.512;2023-08-01T03:43:57;5.78;;;3.05;;
77788;SDS011;70537;44.384;0.512;2023-08-01T03:46:23;3.85;;;3.03;;
77788;SDS011;70537;44.384;0.512;2023-08-01T03:48:48;6.20;;;3.78;;
77788;SDS011;70537;44.384;0.512;2023-08-01T03:51:14;9.52;;;3.42;;
77788;SDS011;70537;44.384;0.512;2023-08-01T03:53:40;4.65;;;3.15;;
77788;SDS011;70537;44.384;0.512;2023-08-01T03:56:07;4.85;;;2.92;;
77788;SDS011;70537;44.384;0.512;2023-08-01T03:58:32;5.10;;;3.13;;
77788;SDS011;70537;44.384;0.512;2023-08-01T04:00:58;5.93;;;2.30;;
77788;SDS011;70537;44.384;0.512;2023-08-01T04:03:23;3.58;;;2.97;;
77788;SDS011;70537;44.384;0.512;2023-08-01T04:05:49;4.50;;;3.78;;
77788;SDS011;70537;44.384;0.512;2023-08-01T04:08:14;5.15;;;3.72;;
77788;SDS011;70537;44.384;0.512;2023-08-01T04:10:40;5.28;;;3.83;;
77788;SDS011;70537;44.384;0.512;2023-08-01T04:13:05;6.97;;;3.85;;
77788;SDS011;70537;44.384;0.512;2023-08-01T04:15:31;4.55;;;3.53;;
77788;SDS011;70537;44.384;0.512;2023-08-01T04:17:56;4.60;;;2.92;;
77788;SDS011;70537;44.384;0.512;2023-08-01T04:20:22;5.45;;;3.95;;
77788;SDS011;70537;44.384;0.512;2023-08-01T04:22:47;5.55;;;3.47;;
77788;SDS011;70537;44.384;0.512;2023-08-01T04:25:13;5.68;;;2.78;;
77788;SDS011;70537;44.384;0.512;2023-08-01T04:27:38;5.22;;;3.53;;
77788;SDS011;70537;44.384;0.512;2023-08-01T04:30:04;7.78;;;3.35;;
77788;SDS011;70537;44.384;0.512;2023-08-01T04:32:30;6.95;;;3.58;;
77788;SDS011;70537;44.384;0.512;2023-08-01T04:34:55;5.35;;;3.58;;
77788;SDS011;70537;44.384;0.512;2023-08-01T04:37:21;6.78;;;3.42;;
77788;SDS011;70537;44.384;0.512;2023-08-01T04:39:48;5.80;;;3.60;;
77788;SDS011;70537;44.384;0.512;2023-08-01T04:42:13;7.85;;;3.50;;
77788;SDS011;70537;44.384;0.512;2023-08-01T04:44:39;4.22;;;3.53;;
77788;SDS011;70537;44.384;0.512;2023-08-01T04:47:04;7.50;;;3.40;;
77788;SDS011;70537;44.384;0.512;2023-08-01T04:49:31;4.68;;;3.00;;
77788;SDS011;70537;44.384;0.512;2023-08-01T04:51:56;4.13;;;3.15;;
77788;SDS011;70537;44.384;0.512;2023-08-01T04:54:22;6.45;;;3.95;;
77788;SDS011;70537;44.384;0.512;2023-08-01T04:56:47;5.22;;;3.15;;
77788;SDS011;70537;44.384;0.512;2023-08-01T04:59:13;6.95;;;3.92;;
77788;SDS011;70537;44.384;0.512;2023-08-01T05:01:38;6.90;;;3.78;;
77788;SDS011;70537;44.384;0.512;2023-08-01T05:04:04;3.92;;;3.08;;
77788;SDS011;70537;44.384;0.512;2023-08-01T05:06:29;5.43;;;3.72;;
77788;SDS011;70537;44.384;0.512;2023-08-01T05:08:54;5.00;;;3.67;;
77788;SDS011;70537;44.384;0.512;2023-08-01T05:11:20;4.15;;;3.25;;
77788;SDS011;70537;44.384;0.512;2023-08-01T05:13:46;5.50;;;4.13;;
77788;SDS011;70537;44.384;0.512;2023-08-01T05:16:12;3.67;;;2.97;;
77788;SDS011;70537;44.384;0.512;2023-08-01T05:18:38;5.28;;;3.17;;
77788;SDS011;70537;44.384;0.512;2023-08-01T05:21:03;4.35;;;2.65;;
77788;SDS011;70537;44.384;0.512;2023-08-01T05:23:29;3.50;;;2.60;;
77788;SDS011;70537;44.384;0.512;2023-08-01T05:25:54;7.18;;;2.85;;
77788;SDS011;70537;44.384;0.512;2023-08-01T05:28:19;3.63;;;2.65;;
77788;SDS011;70537;44.384;0.512;2023-08-01T05:30:45;4.35;;;3.13;;
77788;SDS011;70537;44.384;0.512;2023-08-01T05:33:10;3.75;;;2.42;;
77788;SDS011;70537;44.384;0.512;2023-08-01T05:35:36;3.67;;;2.95;;
77788;SDS011;70537;44.384;0.512;2023-08-01T05:38:01;4.90;;;3.40;;
77788;SDS011;70537;44.384;0.512;2023-08-01T05:40:27;2.88;;;2.45;;
77788;SDS011;70537;44.384;0.512;2023-08-01T05:42:53;4.07;;;2.25;;
77788;SDS011;70537;44.384;0.512;2023-08-01T05:45:18;4.68;;;3.17;;
77788;SDS011;70537;44.384;0.512;2023-08-01T05:47:44;7.10;;;3.28;;
77788;SDS011;70537;44.384;0.512;2023-08-01T05:50:09;3.10;;;2.35;;
77788;SDS011;70537;44.384;0.512;2023-08-01T05:52:35;6.93;;;2.85;;
77788;SDS011;70537;44.384;0.512;2023-08-01T05:55:01;6.68;;;3.45;;
77788;SDS011;70537;44.384;0.512;2023-08-01T05:57:26;6.15;;;3.38;;
77788;SDS011;70537;44.384;0.512;2023-08-01T05:59:51;4.70;;;3.83;;
77788;SDS011;70537;44.384;0.512;2023-08-01T06:02:18;7.28;;;3.22;;
77788;SDS011;70537;44.384;0.512;2023-08-01T06:04:43;6.60;;;2.83;;
77788;SDS011;70537;44.384;0.512;2023-08-01T06:07:09;6.47;;;2.97;;
77788;SDS011;70537;44.384;0.512;2023-08-01T06:09:34;3.38;;;2.65;;
77788;SDS011;70537;44.384;0.512;2023-08-01T06:12:00;4.45;;;2.53;;
77788;SDS011;70537;44.384;0.512;2023-08-01T06:14:25;5.10;;;3.10;;
77788;SDS011;70537;44.384;0.512;2023-08-01T06:16:51;5.50;;;3.03;;
77788;SDS011;70537;44.384;0.512;2023-08-01T06:19:16;4.05;;;2.55;;
77788;SDS011;70537;44.384;0.512;2023-08-01T06:21:42;6.75;;;3.10;;
77788;SDS011;70537;44.384;0.512;2023-08-01T06:24:08;7.43;;;3.05;;
77788;SDS011;70537;44.384;0.512;2023-08-01T06:26:33;5.75;;;2.83;;
77788;SDS011;70537;44.384;0.512;2023-08-01T06:28:59;4.93;;;3.10;;
77788;SDS011;70537;44.384;0.512;2023-08-01T06:31:25;6.53;;;3.08;;
77788;SDS011;70537;44.384;0.512;2023-08-01T06:33:51;6.72;;;2.70;;
77788;SDS011;70537;44.384;0.512;2023-08-01T06:36:16;5.40;;;2.25;;
77788;SDS011;70537;44.384;0.512;2023-08-01T06:38:42;4.70;;;2.35;;
77788;SDS011;70537;44.384;0.512;2023-08-01T06:41:08;4.18;;;2.40;;
77788;SDS011;70537;44.384;0.512;2023-08-01T06:43:34;8.00;;;3.53;;
77788;SDS011;70537;44.384;0.512;2023-08-01T06:46:02;6.20;;;3.00;;
77788;SDS011;70537;44.384;0.512;2023-08-01T06:48:28;4.18;;;2.92;;
77788;SDS011;70537;44.384;0.512;2023-08-01T06:50:53;8.27;;;3.15;;
77788;SDS011;70537;44.384;0.512;2023-08-01T06:53:19;4.00;;;3.45;;
77788;SDS011;70537;44.384;0.512;2023-08-01T06:55:44;6.90;;;3.95;;
77788;SDS011;70537;44.384;0.512;2023-08-01T06:58:10;6.32;;;2.17;;
77788;SDS011;70537;44.384;0.512;2023-08-01T07:00:35;3.33;;;2.42;;
77788;SDS011;70537;44.384;0.512;2023-08-01T07:03:01;7.22;;;3.60;;
77788;SDS011;70537;44.384;0.512;2023-08-01T07:05:27;4.93;;;3.10;;
77788;SDS011;70537;44.384;0.512;2023-08-01T07:07:52;5.72;;;3.60;;
77788;SDS011;70537;44.384;0.512;2023-08-01T07:10:18;5.22;;;2.88;;
77788;SDS011;70537;44.384;0.512;2023-08-01T07:12:43;6.75;;;3.08;;
77788;SDS011;70537;44.384;0.512;2023-08-01T07:15:09;4.93;;;3.13;;
77788;SDS011;70537;44.384;0.512;2023-08-01T07:17:34;3.53;;;2.92;;
77788;SDS011;70537;44.384;0.512;2023-08-01T07:20:00;5.30;;;3.17;;
77788;SDS011;70537;44.384;0.512;2023-08-01T07:22:25;6.18;;;3.28;;
77788;SDS011;70537;44.384;0.512;2023-08-01T07:24:54;5.75;;;2.67;;
77788;SDS011;70537;44.384;0.512;2023-08-01T07:27:20;6.38;;;2.80;;
77788;SDS011;70537;44.384;0.512;2023-08-01T07:29:46;3.00;;;2.38;;
77788;SDS011;70537;44.384;0.512;2023-08-01T07:32:12;4.28;;;2.72;;
77788;SDS011;70537;44.384;0.512;2023-08-01T07:34:37;4.72;;;2.35;;
77788;SDS011;70537;44.384;0.512;2023-08-01T07:37:03;4.65;;;2.38;;
77788;SDS011;70537;44.384;0.512;2023-08-01T07:39:29;3.40;;;2.28;;
77788;SDS011;70537;44.384;0.512;2023-08-01T07:41:55;6.45;;;2.75;;
77788;SDS011;70537;44.384;0.512;2023-08-01T07:44:21;5.47;;;3.10;;
77788;SDS011;70537;44.384;0.512;2023-08-01T07:46:46;4.57;;;2.10;;
77788;SDS011;70537;44.384;0.512;2023-08-01T07:49:12;4.30;;;3.03;;
77788;SDS011;70537;44.384;0.512;2023-08-01T07:51:37;5.35;;;2.88;;
77788;SDS011;70537;44.384;0.512;2023-08-01T07:54:03;5.20;;;2.72;;
77788;SDS011;70537;44.384;0.512;2023-08-01T07:56:28;4.07;;;3.05;;
77788;SDS011;70537;44.384;0.512;2023-08-01T07:58:54;5.00;;;2.60;;
77788;SDS011;70537;44.384;0.512;2023-08-01T08:01:19;4.45;;;2.97;;
77788;SDS011;70537;44.384;0.512;2023-08-01T08:03:45;3.95;;;3.15;;
77788;SDS011;70537;44.384;0.512;2023-08-01T08:06:10;3.30;;;2.53;;
77788;SDS011;70537;44.384;0.512;2023-08-01T08:08:36;7.90;;;3.15;;
77788;SDS011;70537;44.384;0.512;2023-08-01T08:11:02;4.75;;;2.78;;
77788;SDS011;70537;44.384;0.512;2023-08-01T08:13:27;4.97;;;3.00;;
77788;SDS011;70537;44.384;0.512;2023-08-01T08:15:56;6.53;;;2.95;;
77788;SDS011;70537;44.384;0.512;2023-08-01T08:18:22;8.82;;;3.40;;
77788;SDS011;70537;44.384;0.512;2023-08-01T08:20:48;7.07;;;2.80;;
77788;SDS011;70537;44.384;0.512;2023-08-01T08:23:14;3.55;;;3.05;;
77788;SDS011;70537;44.384;0.512;2023-08-01T08:25:40;9.55;;;3.50;;
77788;SDS011;70537;44.384;0.512;2023-08-01T08:28:06;4.50;;;2.78;;
77788;SDS011;70537;44.384;0.512;2023-08-01T08:30:31;6.50;;;2.53;;
77788;SDS011;70537;44.384;0.512;2023-08-01T08:32:57;4.82;;;2.92;;
77788;SDS011;70537;44.384;0.512;2023-08-01T08:35:23;3.40;;;2.72;;
77788;SDS011;70537;44.384;0.512;2023-08-01T08:37:49;4.55;;;3.08;;
77788;SDS011;70537;44.384;0.512;2023-08-01T08:40:14;5.20;;;2.83;;
77788;SDS011;70537;44.384;0.512;2023-08-01T08:42:40;4.13;;;2.60;;
77788;SDS011;70537;44.384;0.512;2023-08-01T08:45:06;4.63;;;2.42;;
77788;SDS011;70537;44.384;0.512;2023-08-01T08:47:35;6.63;;;2.80;;
77788;SDS011;70537;44.384;0.512;2023-08-01T08:50:01;3.40;;;2.78;;
77788;SDS011;70537;44.384;0.512;2023-08-01T08:52:27;4.70;;;2.78;;
77788;SDS011;70537;44.384;0.512;2023-08-01T08:54:53;4.72;;;2.60;;
77788;SDS011;70537;44.384;0.512;2023-08-01T08:57:19;4.68;;;2.75;;
77788;SDS011;70537;44.384;0.512;2023-08-01T08:59:46;3.20;;;2.40;;
77788;SDS011;70537;44.384;0.512;2023-08-01T09:02:12;3.50;;;2.47;;
77788;SDS011;70537;44.384;0.512;2023-08-01T09:04:40;2.42;;;2.22;;
77788;SDS011;70537;44.384;0.512;2023-08-01T09:07:09;3.55;;;2.10;;
77788;SDS011;70537;44.384;0.512;2023-08-01T09:09:36;2.90;;;2.15;;
77788;SDS011;70537;44.384;0.512;2023-08-01T09:12:02;3.30;;;2.47;;
77788;SDS011;70537;44.384;0.512;2023-08-01T09:14:28;3.75;;;1.80;;
77788;SDS011;70537;44.384;0.512;2023-08-01T09:16:54;3.05;;;1.83;;
77788;SDS011;70537;44.384;0.512;2023-08-01T09:19:24;2.83;;;2.05;;
77788;SDS011;70537;44.384;0.512;2023-08-01T09:21:50;2.97;;;2.22;;
77788;SDS011;70537;44.384;0.512;2023-08-01T09:26:43;2.13;;;1.52;;
77788;SDS011;70537;44.384;0.512;2023-08-01T09:29:09;6.88;;;1.98;;
77788;SDS011;70537;44.384;0.512;2023-08-01T09:31:36;4.18;;;1.27;;
77788;SDS011;70537;44.384;0.512;2023-08-01T09:34:04;3.85;;;1.17;;
77788;SDS011;70537;44.384;0.512;2023-08-01T09:36:33;2.50;;;1.23;;
77788;SDS011;70537;44.384;0.512;2023-08-01T09:38:59;1.73;;;1.30;;
77788;SDS011;70537;44.384;0.512;2023-08-01T09:41:26;1.40;;;1.30;;
77788;SDS011;70537;44.384;0.512;2023-08-01T09:43:53;1.70;;;1.20;;
77788;SDS011;70537;44.384;0.512;2023-08-01T09:46:19;1.45;;;1.15;;
77788;SDS011;70537;44.384;0.512;2023-08-01T09:48:44;1.15;;;0.93;;
77788;SDS011;70537;44.384;0.512;2023-08-01T09:51:10;1.60;;;1.10;;
77788;SDS011;70537;44.384;0.512;2023-08-01T09:53:47;3.25;;;1.10;;
77788;SDS011;70537;44.384;0.512;2023-08-01T09:56:20;1.73;;;1.10;;
77788;SDS011;70537;44.384;0.512;2023-08-01T09:58:47;0.80;;;0.73;;
77788;SDS011;70537;44.384;0.512;2023-08-01T10:01:14;1.50;;;1.15;;
77788;SDS011;70537;44.384;0.512;2023-08-01T10:03:41;3.28;;;0.82;;
77788;SDS011;70537;44.384;0.512;2023-08-01T10:06:10;1.10;;;0.95;;
77788;SDS011;70537;44.384;0.512;2023-08-01T10:08:39;1.40;;;0.77;;
77788;SDS011;70537;44.384;0.512;2023-08-01T10:11:05;0.60;;;0.60;;
77788;SDS011;70537;44.384;0.512;2023-08-01T10:13:31;1.50;;;1.00;;
77788;SDS011;70537;44.384;0.512;2023-08-01T10:15:57;2.15;;;0.50;;
77788;SDS011;70537;44.384;0.512;2023-08-01T10:18:24;3.30;;;1.05;;
77788;SDS011;70537;44.384;0.512;2023-08-01T10:20:50;1.88;;;1.00;;
77788;SDS011;70537;44.384;0.512;2023-08-01T10:23:17;5.43;;;1.08;;
77788;SDS011;70537;44.384;0.512;2023-08-01T10:25:43;1.85;;;1.20;;
77788;SDS011;70537;44.384;0.512;2023-08-01T10:28:10;1.35;;;1.10;;
77788;SDS011;70537;44.384;0.512;2023-08-01T10:30:35;1.00;;;0.85;;
77788;SDS011;70537;44.384;0.512;2023-08-01T10:33:01;1.33;;;0.98;;
77788;SDS011;70537;44.384;0.512;2023-08-01T10:38:11;1.23;;;0.77;;
77788;SDS011;70537;44.384;0.512;2023-08-01T10:40:38;1.52;;;0.75;;
77788;SDS011;70537;44.384;0.512;2023-08-01T10:43:04;2.25;;;1.23;;
77788;SDS011;70537;44.384;0.512;2023-08-01T10:45:29;1.80;;;1.42;;
77788;SDS011;70537;44.384;0.512;2023-08-01T10:48:08;1.10;;;1.00;;
77788;SDS011;70537;44.384;0.512;2023-08-01T10:50:35;1.27;;;1.17;;
77788;SDS011;70537;44.384;0.512;2023-08-01T10:53:04;2.50;;;1.17;;
77788;SDS011;70537;44.384;0.512;2023-08-01T10:55:44;2.75;;;1.35;;
77788;SDS011;70537;44.384;0.512;2023-08-01T10:58:11;2.92;;;0.90;;
77788;SDS011;70537;44.384;0.512;2023-08-01T11:00:37;2.38;;;0.90;;
77788;SDS011;70537;44.384;0.512;2023-08-01T11:03:03;2.70;;;1.05;;
77788;SDS011;70537;44.384;0.512;2023-08-01T11:05:28;1.90;;;1.02;;
77788;SDS011;70537;44.384;0.512;2023-08-01T11:07:58;1.85;;;0.90;;
77788;SDS011;70537;44.384;0.512;2023-08-01T11:10:26;2.80;;;0.95;;
77788;SDS011;70537;44.384;0.512;2023-08-01T11:12:53;1.90;;;1.02;;
77788;SDS011;70537;44.384;0.512;2023-08-01T11:15:18;2.35;;;1.27;;
77788;SDS011;70537;44.384;0.512;2023-08-01T11:17:51;2.13;;;1.38;;
77788;SDS011;70537;44.384;0.512;2023-08-01T11:20:19;3.97;;;1.55;;
77788;SDS011;70537;44.384;0.512;2023-08-01T11:22:51;2.10;;;1.20;;
77788;SDS011;70537;44.384;0.512;2023-08-01T11:25:17;3.35;;;1.40;;
77788;SDS011;70537;44.384;0.512;2023-08-01T11:27:42;2.95;;;1.30;;
77788;SDS011;70537;44.384;0.512;2023-08-01T11:30:08;1.63;;;1.02;;
77788;SDS011;70537;44.384;0.512;2023-08-01T11:32:34;2.00;;;1.35;;
77788;SDS011;70537;44.384;0.512;2023-08-01T11:35:02;1.45;;;1.20;;
77788;SDS011;70537;44.384;0.512;2023-08-01T11:37:28;2.47;;;1.65;;
77788;SDS011;70537;44.384;0.512;2023-08-01T11:39:55;2.90;;;1.65;;
77788;SDS011;70537;44.384;0.512;2023-08-01T11:42:21;2.75;;;1.40;;
77788;SDS011;70537;44.384;0.512;2023-08-01T11:44:47;5.47;;;1.70;;
77788;SDS011;70537;44.384;0.512;2023-08-01T11:47:16;3.63;;;1.33;;
77788;SDS011;70537;44.384;0.512;2023-08-01T11:49:49;2.85;;;1.70;;
77788;SDS011;70537;44.384;0.512;2023-08-01T11:52:24;2.17;;;1.50;;
77788;SDS011;70537;44.384;0.512;2023-08-01T11:54:50;3.38;;;1.60;;
77788;SDS011;70537;44.384;0.512;2023-08-01T11:57:16;2.63;;;1.17;;
77788;SDS011;70537;44.384;0.512;2023-08-01T11:59:46;9.75;;;2.28;;
77788;SDS011;70537;44.384;0.512;2023-08-01T12:02:20;6.82;;;2.25;;
77788;SDS011;70537;44.384;0.512;2023-08-01T12:04:46;3.25;;;1.63;;
77788;SDS011;70537;44.384;0.512;2023-08-01T12:07:13;5.22;;;2.20;;
77788;SDS011;70537;44.384;0.512;2023-08-01T12:09:39;3.20;;;2.03;;
77788;SDS011;70537;44.384;0.512;2023-08-01T12:12:05;3.38;;;1.90;;
77788;SDS011;70537;44.384;0.512;2023-08-01T12:14:31;3.22;;;1.92;;
77788;SDS011;70537;44.384;0.512;2023-08-01T12:16:57;3.17;;;1.80;;
77788;SDS011;70537;44.384;0.512;2023-08-01T12:19:22;2.55;;;1.33;;
77788;SDS011;70537;44.384;0.512;2023-08-01T12:21:48;2.90;;;1.52;;
77788;SDS011;70537;44.384;0.512;2023-08-01T12:24:14;5.32;;;2.15;;
77788;SDS011;70537;44.384;0.512;2023-08-01T12:26:39;2.35;;;1.67;;
77788;SDS011;70537;44.384;0.512;2023-08-01T12:29:05;4.60;;;1.80;;
77788;SDS011;70537;44.384;0.512;2023-08-01T12:31:30;2.33;;;1.65;;
77788;SDS011;70537;44.384;0.512;2023-08-01T12:33:56;2.65;;;1.15;;
77788;SDS011;70537;44.384;0.512;2023-08-01T12:36:21;2.95;;;1.80;;
77788;SDS011;70537;44.384;0.512;2023-08-01T12:38:47;2.80;;;1.38;;
77788;SDS011;70537;44.384;0.512;2023-08-01T12:41:13;2.63;;;1.48;;
77788;SDS011;70537;44.384;0.512;2023-08-01T12:43:38;2.78;;;1.70;;
77788;SDS011;70537;44.384;0.512;2023-08-01T12:46:04;2.30;;;1.70;;
77788;SDS011;70537;44.384;0.512;2023-08-01T12:48:30;3.15;;;2.08;;
77788;SDS011;70537;44.384;0.512;2023-08-01T12:50:55;2.17;;;1.40;;
77788;SDS011;70537;44.384;0.512;2023-08-01T12:53:21;4.75;;;2.33;;
77788;SDS011;70537;44.384;0.512;2023-08-01T12:55:48;4.95;;;2.50;;
77788;SDS011;70537;44.384;0.512;2023-08-01T12:58:15;4.72;;;1.92;;
77788;SDS011;70537;44.384;0.512;2023-08-01T13:00:41;3.65;;;2.28;;
77788;SDS011;70537;44.384;0.512;2023-08-01T13:03:07;3.70;;;2.30;;
77788;SDS011;70537;44.384;0.512;2023-08-01T13:05:36;4.60;;;2.38;;
77788;SDS011;70537;44.384;0.512;2023-08-01T13:08:03;6.78;;;2.08;;
77788;SDS011;70537;44.384;0.512;2023-08-01T13:10:30;4.00;;;2.42;;
77788;SDS011;70537;44.384;0.512;2023-08-01T13:12:56;3.08;;;2.28;;
77788;SDS011;70537;44.384;0.512;2023-08-01T13:15:23;4.82;;;2.10;;
77788;SDS011;70537;44.384;0.512;2023-08-01T13:17:50;4.25;;;2.67;;
77788;SDS011;70537;44.384;0.512;2023-08-01T13:20:16;3.33;;;2.53;;
77788;SDS011;70537;44.384;0.512;2023-08-01T13:22:42;3.13;;;2.15;;
77788;SDS011;70537;44.384;0.512;2023-08-01T13:25:08;3.70;;;2.33;;
77788;SDS011;70537;44.384;0.512;2023-08-01T13:27:34;3.15;;;2.22;;
77788;SDS011;70537;44.384;0.512;2023-08-01T13:30:01;3.65;;;1.92;;
77788;SDS011;70537;44.384;0.512;2023-08-01T13:32:27;2.80;;;2.30;;
77788;SDS011;70537;44.384;0.512;2023-08-01T13:34:53;4.20;;;1.90;;
77788;SDS011;70537;44.384;0.512;2023-08-01T13:37:18;4.82;;;2.50;;
77788;SDS011;70537;44.384;0.512;2023-08-01T13:39:44;4.20;;;2.15;;
77788;SDS011;70537;44.384;0.512;2023-08-01T13:42:11;3.75;;;2.47;;
77788;SDS011;70537;44.384;0.512;2023-08-01T13:44:37;3.30;;;2.40;;
77788;SDS011;70537;44.384;0.512;2023-08-01T13:47:03;5.13;;;3.30;;
77788;SDS011;70537;44.384;0.512;2023-08-01T13:49:29;4.78;;;2.92;;
77788;SDS011;70537;44.384;0.512;2023-08-01T13:51:55;3.88;;;2.90;;
77788;SDS011;70537;44.384;0.512;2023-08-01T13:54:21;2.83;;;2.35;;
77788;SDS011;70537;44.384;0.512;2023-08-01T13:56:47;3.95;;;3.30;;
77788;SDS011;70537;44.384;0.512;2023-08-01T13:59:12;3.30;;;2.60;;
77788;SDS011;70537;44.384;0.512;2023-08-01T14:01:38;4.43;;;2.45;;
77788;SDS011;70537;44.384;0.512;2023-08-01T14:04:04;4.40;;;2.97;;
77788;SDS011;70537;44.384;0.512;2023-08-01T14:06:30;6.50;;;2.75;;
77788;SDS011;70537;44.384;0.512;2023-08-01T14:08:55;4.18;;;2.88;;
77788;SDS011;70537;44.384;0.512;2023-08-01T14:11:21;3.90;;;2.70;;
77788;SDS011;70537;44.384;0.512;2023-08-01T14:13:47;4.75;;;2.97;;
77788;SDS011;70537;44.384;0.512;2023-08-01T14:16:12;5.60;;;2.33;;
77788;SDS011;70537;44.384;0.512;2023-08-01T14:18:38;5.00;;;2.70;;
77788;SDS011;70537;44.384;0.512;2023-08-01T14:21:04;6.45;;;2.50;;
77788;SDS011;70537;44.384;0.512;2023-08-01T14:23:30;3.25;;;2.83;;
77788;SDS011;70537;44.384;0.512;2023-08-01T14:25:59;5.00;;;2.65;;
77788;SDS011;70537;44.384;0.512;2023-08-01T14:28:25;4.32;;;3.25;;
77788;SDS011;70537;44.384;0.512;2023-08-01T14:30:50;3.67;;;2.63;;
77788;SDS011;70537;44.384;0.512;2023-08-01T14:33:16;7.60;;;3.70;;
77788;SDS011;70537;44.384;0.512;2023-08-01T14:35:42;5.32;;;3.15;;
77788;SDS011;70537;44.384;0.512;2023-08-01T14:38:08;4.72;;;2.92;;
77788;SDS011;70537;44.384;0.512;2023-08-01T14:40:34;5.60;;;2.78;;
77788;SDS011;70537;44.384;0.512;2023-08-01T14:45:26;2.53;;;2.30;;
77788;SDS011;70537;44.384;0.512;2023-08-01T14:47:52;3.38;;;2.53;;
77788;SDS011;70537;44.384;0.512;2023-08-01T14:50:17;8.20;;;2.35;;
77788;SDS011;70537;44.384;0.512;2023-08-01T14:52:43;3.67;;;3.10;;